sensor_id;sensor_type;location;lat;lon;timestamp;temperature;humidity
10692;DHT22;5396;50.950;6.988;2023-06-22T00:00:19;22.80;99.90
10692;DHT22;5396;50.950;6.988;2023-06-22T00:02:45;22.80;99.90
10692;DHT22;5396;50.950;6.988;2023-06-22T00:05:11;22.80;1.00
10692;DHT22;5396;50.950;6.988;2023-06-22T00:07:36;22.80;1.00
10692;DHT22;5396;50.950;6.988;2023-06-22T00:10:02;22.70;99.90
10692;DHT22;5396;50.950;6.988;2023-06-22T00:12:27;22.70;1.00
10692;DHT22;5396;50.950;6.988;2023-06-22T00:14:53;22.70;1.00
10692;DHT22;5396;50.950;6.988;2023-06-22T00:17:19;22.70;1.00
10692;DHT22;5396;50.950;6.988;2023-06-22T00:19:47;22.70;1.00
10692;DHT22;5396;50.950;6.988;2023-06-22T00:22:13;22.70;1.00
10692;DHT22;5396;50.950;6.988;2023-06-22T00:24:38;22.70;1.00
10692;DHT22;5396;50.950;6.988;2023-06-22T00:27:04;22.70;1.00
10692;DHT22;5396;50.950;6.988;2023-06-22T00:29:31;22.70;44.00
10692;DHT22;5396;50.950;6.988;2023-06-22T00:31:56;22.70;1.00
10692;DHT22;5396;50.950;6.988;2023-06-22T00:34:22;22.60;99.90
10692;DHT22;5396;50.950;6.988;2023-06-22T00:36:47;22.60;1.00
10692;DHT22;5396;50.950;6.988;2023-06-22T00:39:13;22.60;36.70
10692;DHT22;5396;50.950;6.988;2023-06-22T00:41:39;22.60;12.50
10692;DHT22;5396;50.950;6.988;2023-06-22T00:44:04;22.60;1.00
10692;DHT22;5396;50.950;6.988;2023-06-22T00:46:30;22.60;1.00
10692;DHT22;5396;50.950;6.988;2023-06-22T00:48:56;22.60;1.00
10692;DHT22;5396;50.950;6.988;2023-06-22T00:51:22;22.60;99.90
10692;DHT22;5396;50.950;6.988;2023-06-22T00:53:50;22.60;99.90
10692;DHT22;5396;50.950;6.988;2023-06-22T00:56:17;22.60;99.90
10692;DHT22;5396;50.950;6.988;2023-06-22T00:58:45;22.60;1.00
10692;DHT22;5396;50.950;6.988;2023-06-22T01:01:12;22.60;1.00
10692;DHT22;5396;50.950;6.988;2023-06-22T01:03:39;22.60;99.90
10692;DHT22;5396;50.950;6.988;2023-06-22T01:06:17;22.60;1.00
10692;DHT22;5396;50.950;6.988;2023-06-22T01:09:19;22.50;1.00
10692;DHT22;5396;50.950;6.988;2023-06-22T01:11:53;22.40;1.00
10692;DHT22;5396;50.950;6.988;2023-06-22T01:14:24;22.40;1.00
10692;DHT22;5396;50.950;6.988;2023-06-22T01:16:52;22.50;1.00
10692;DHT22;5396;50.950;6.988;2023-06-22T01:21:52;22.40;1.00
10692;DHT22;5396;50.950;6.988;2023-06-22T01:24:27;22.40;1.00
10692;DHT22;5396;50.950;6.988;2023-06-22T01:29:33;22.40;1.00
10692;DHT22;5396;50.950;6.988;2023-06-22T01:32:00;22.30;1.00
10692;DHT22;5396;50.950;6.988;2023-06-22T01:34:27;22.30;1.00
10692;DHT22;5396;50.950;6.988;2023-06-22T01:36:54;22.30;1.00
10692;DHT22;5396;50.950;6.988;2023-06-22T01:39:21;22.30;1.00
10692;DHT22;5396;50.950;6.988;2023-06-22T01:41:48;22.30;1.00
10692;DHT22;5396;50.950;6.988;2023-06-22T01:44:15;22.20;1.00
10692;DHT22;5396;50.950;6.988;2023-06-22T01:46:41;22.20;1.00
10692;DHT22;5396;50.950;6.988;2023-06-22T01:49:07;22.20;1.00
10692;DHT22;5396;50.950;6.988;2023-06-22T01:51:33;22.20;1.00
10692;DHT22;5396;50.950;6.988;2023-06-22T01:53:59;22.20;1.00
10692;DHT22;5396;50.950;6.988;2023-06-22T01:56:26;22.20;1.00
10692;DHT22;5396;50.950;6.988;2023-06-22T01:59:09;22.20;1.00
10692;DHT22;5396;50.950;6.988;2023-06-22T02:02:06;22.20;1.00
10692;DHT22;5396;50.950;6.988;2023-06-22T02:04:51;22.20;1.00
10692;DHT22;5396;50.950;6.988;2023-06-22T02:07:18;22.30;1.00
10692;DHT22;5396;50.950;6.988;2023-06-22T02:09:48;22.20;1.00
10692;DHT22;5396;50.950;6.988;2023-06-22T02:12:19;22.30;1.00
10692;DHT22;5396;50.950;6.988;2023-06-22T02:14:46;22.20;1.00
10692;DHT22;5396;50.950;6.988;2023-06-22T02:17:12;22.30;21.40
10692;DHT22;5396;50.950;6.988;2023-06-22T02:19:41;22.20;99.90
10692;DHT22;5396;50.950;6.988;2023-06-22T02:22:07;22.20;1.00
10692;DHT22;5396;50.950;6.988;2023-06-22T02:24:32;22.30;1.00
10692;DHT22;5396;50.950;6.988;2023-06-22T02:27:02;22.20;1.00
10692;DHT22;5396;50.950;6.988;2023-06-22T02:29:28;22.20;1.00
10692;DHT22;5396;50.950;6.988;2023-06-22T02:38:04;22.30;1.00
10692;DHT22;5396;50.950;6.988;2023-06-22T02:40:29;22.20;1.00
10692;DHT22;5396;50.950;6.988;2023-06-22T02:42:55;22.20;1.00
10692;DHT22;5396;50.950;6.988;2023-06-22T02:45:23;22.20;99.90
10692;DHT22;5396;50.950;6.988;2023-06-22T02:47:49;22.20;99.90
10692;DHT22;5396;50.950;6.988;2023-06-22T02:50:15;22.10;78.70
10692;DHT22;5396;50.950;6.988;2023-06-22T02:52:40;22.10;99.90
10692;DHT22;5396;50.950;6.988;2023-06-22T02:55:06;22.10;1.00
10692;DHT22;5396;50.950;6.988;2023-06-22T03:09:52;22.00;99.90
10692;DHT22;5396;50.950;6.988;2023-06-22T03:12:17;21.90;1.00
10692;DHT22;5396;50.950;6.988;2023-06-22T03:14:44;21.80;1.00
10692;DHT22;5396;50.950;6.988;2023-06-22T03:17:10;21.80;1.00
10692;DHT22;5396;50.950;6.988;2023-06-22T03:19:36;21.70;1.00
10692;DHT22;5396;50.950;6.988;2023-06-22T03:22:01;21.70;1.00
10692;DHT22;5396;50.950;6.988;2023-06-22T03:24:27;21.70;1.00
10692;DHT22;5396;50.950;6.988;2023-06-22T03:26:55;21.70;1.00
10692;DHT22;5396;50.950;6.988;2023-06-22T03:29:22;21.70;1.00
10692;DHT22;5396;50.950;6.988;2023-06-22T03:31:47;21.70;1.00
10692;DHT22;5396;50.950;6.988;2023-06-22T03:34:13;21.80;99.90
10692;DHT22;5396;50.950;6.988;2023-06-22T03:36:39;21.80;99.90
10692;DHT22;5396;50.950;6.988;2023-06-22T03:39:04;21.80;99.90
10692;DHT22;5396;50.950;6.988;2023-06-22T03:41:30;21.80;1.00
10692;DHT22;5396;50.950;6.988;2023-06-22T03:43:55;21.80;1.00
10692;DHT22;5396;50.950;6.988;2023-06-22T03:46:21;21.80;1.00
10692;DHT22;5396;50.950;6.988;2023-06-22T03:48:46;21.80;1.00
10692;DHT22;5396;50.950;6.988;2023-06-22T03:51:12;21.80;1.00
10692;DHT22;5396;50.950;6.988;2023-06-22T03:53:38;21.80;1.00
10692;DHT22;5396;50.950;6.988;2023-06-22T03:56:03;21.80;1.00
10692;DHT22;5396;50.950;6.988;2023-06-22T03:58:29;21.80;1.00
10692;DHT22;5396;50.950;6.988;2023-06-22T04:00:58;21.80;1.00
10692;DHT22;5396;50.950;6.988;2023-06-22T04:03:23;21.80;1.00
10692;DHT22;5396;50.950;6.988;2023-06-22T04:05:49;21.80;99.90
10692;DHT22;5396;50.950;6.988;2023-06-22T04:08:14;21.80;99.90
10692;DHT22;5396;50.950;6.988;2023-06-22T04:10:40;21.80;1.00
10692;DHT22;5396;50.950;6.988;2023-06-22T04:13:07;21.80;1.00
10692;DHT22;5396;50.950;6.988;2023-06-22T04:15:32;21.80;1.00
10692;DHT22;5396;50.950;6.988;2023-06-22T04:17:58;21.80;1.00
10692;DHT22;5396;50.950;6.988;2023-06-22T04:20:23;21.80;1.00
10692;DHT22;5396;50.950;6.988;2023-06-22T04:22:54;21.90;1.00
10692;DHT22;5396;50.950;6.988;2023-06-22T04:25:20;21.90;1.00
10692;DHT22;5396;50.950;6.988;2023-06-22T04:27:46;22.00;1.00
10692;DHT22;5396;50.950;6.988;2023-06-22T04:30:12;22.00;1.00
10692;DHT22;5396;50.950;6.988;2023-06-22T04:32:40;22.10;39.80
10692;DHT22;5396;50.950;6.988;2023-06-22T04:35:06;22.00;99.90
10692;DHT22;5396;50.950;6.988;2023-06-22T04:37:33;22.00;1.00
10692;DHT22;5396;50.950;6.988;2023-06-22T04:39:58;22.00;1.00
10692;DHT22;5396;50.950;6.988;2023-06-22T04:42:27;22.00;1.00
10692;DHT22;5396;50.950;6.988;2023-06-22T04:44:53;22.00;99.90
10692;DHT22;5396;50.950;6.988;2023-06-22T04:47:19;21.90;89.40
10692;DHT22;5396;50.950;6.988;2023-06-22T04:49:44;21.90;99.90
10692;DHT22;5396;50.950;6.988;2023-06-22T04:52:11;21.90;99.90
10692;DHT22;5396;50.950;6.988;2023-06-22T04:54:39;21.90;1.00
10692;DHT22;5396;50.950;6.988;2023-06-22T04:57:06;21.90;1.00
10692;DHT22;5396;50.950;6.988;2023-06-22T04:59:36;21.90;1.00
10692;DHT22;5396;50.950;6.988;2023-06-22T05:02:02;22.00;48.20
10692;DHT22;5396;50.950;6.988;2023-06-22T05:04:29;21.90;1.00
10692;DHT22;5396;50.950;6.988;2023-06-22T05:06:59;21.90;1.00
10692;DHT22;5396;50.950;6.988;2023-06-22T05:09:25;21.90;1.00
10692;DHT22;5396;50.950;6.988;2023-06-22T05:11:51;21.90;1.00
10692;DHT22;5396;50.950;6.988;2023-06-22T05:14:17;21.90;17.70
10692;DHT22;5396;50.950;6.988;2023-06-22T05:16:43;22.00;1.00
10692;DHT22;5396;50.950;6.988;2023-06-22T05:19:09;22.10;1.00
10692;DHT22;5396;50.950;6.988;2023-06-22T05:21:35;22.10;1.00
10692;DHT22;5396;50.950;6.988;2023-06-22T05:24:01;22.20;1.00
10692;DHT22;5396;50.950;6.988;2023-06-22T05:26:29;22.30;99.90
10692;DHT22;5396;50.950;6.988;2023-06-22T05:28:55;22.30;1.00
10692;DHT22;5396;50.950;6.988;2023-06-22T05:31:21;22.40;43.70
10692;DHT22;5396;50.950;6.988;2023-06-22T05:33:48;22.30;99.90
10692;DHT22;5396;50.950;6.988;2023-06-22T05:36:14;22.30;99.90
10692;DHT22;5396;50.950;6.988;2023-06-22T05:38:40;22.30;99.90
10692;DHT22;5396;50.950;6.988;2023-06-22T05:41:07;22.30;1.00
10692;DHT22;5396;50.950;6.988;2023-06-22T05:43:33;22.40;1.00
10692;DHT22;5396;50.950;6.988;2023-06-22T05:46:00;22.40;1.00
10692;DHT22;5396;50.950;6.988;2023-06-22T05:48:26;22.50;1.00
10692;DHT22;5396;50.950;6.988;2023-06-22T05:50:53;22.60;1.00
10692;DHT22;5396;50.950;6.988;2023-06-22T05:53:18;22.70;1.00
10692;DHT22;5396;50.950;6.988;2023-06-22T05:55:44;22.90;1.00
10692;DHT22;5396;50.950;6.988;2023-06-22T05:58:10;23.00;99.90
10692;DHT22;5396;50.950;6.988;2023-06-22T06:00:36;23.10;1.00
10692;DHT22;5396;50.950;6.988;2023-06-22T06:03:01;23.30;1.00
10692;DHT22;5396;50.950;6.988;2023-06-22T06:05:30;23.40;99.90
10692;DHT22;5396;50.950;6.988;2023-06-22T06:07:56;23.50;99.90
10692;DHT22;5396;50.950;6.988;2023-06-22T06:10:22;23.60;1.00
10692;DHT22;5396;50.950;6.988;2023-06-22T06:12:47;23.70;1.00
10692;DHT22;5396;50.950;6.988;2023-06-22T06:15:13;23.60;1.00
10692;DHT22;5396;50.950;6.988;2023-06-22T06:17:52;23.50;1.00
10692;DHT22;5396;50.950;6.988;2023-06-22T06:20:20;23.50;1.00
10692;DHT22;5396;50.950;6.988;2023-06-22T06:22:46;23.50;86.50
10692;DHT22;5396;50.950;6.988;2023-06-22T06:25:12;23.50;1.00
10692;DHT22;5396;50.950;6.988;2023-06-22T06:27:44;23.50;27.30
10692;DHT22;5396;50.950;6.988;2023-06-22T06:30:11;23.50;1.00
10692;DHT22;5396;50.950;6.988;2023-06-22T06:32:36;23.60;1.00
10692;DHT22;5396;50.950;6.988;2023-06-22T06:35:04;23.70;99.90
10692;DHT22;5396;50.950;6.988;2023-06-22T06:37:30;23.80;1.00
10692;DHT22;5396;50.950;6.988;2023-06-22T06:39:55;23.90;1.00
10692;DHT22;5396;50.950;6.988;2023-06-22T06:42:21;24.00;99.90
10692;DHT22;5396;50.950;6.988;2023-06-22T06:44:48;24.20;1.00
10692;DHT22;5396;50.950;6.988;2023-06-22T06:47:13;24.40;99.90
10692;DHT22;5396;50.950;6.988;2023-06-22T06:49:39;24.50;16.20
10692;DHT22;5396;50.950;6.988;2023-06-22T06:52:05;24.60;99.90
10692;DHT22;5396;50.950;6.988;2023-06-22T06:54:31;24.50;1.00
10692;DHT22;5396;50.950;6.988;2023-06-22T06:56:56;24.50;99.90
10692;DHT22;5396;50.950;6.988;2023-06-22T06:59:22;24.40;1.00
10692;DHT22;5396;50.950;6.988;2023-06-22T07:01:47;24.40;99.90
10692;DHT22;5396;50.950;6.988;2023-06-22T07:04:14;24.40;1.00
10692;DHT22;5396;50.950;6.988;2023-06-22T07:06:39;24.50;1.00
10692;DHT22;5396;50.950;6.988;2023-06-22T07:09:05;24.40;99.90
10692;DHT22;5396;50.950;6.988;2023-06-22T07:11:30;24.50;99.90
10692;DHT22;5396;50.950;6.988;2023-06-22T07:13:56;24.50;99.90
10692;DHT22;5396;50.950;6.988;2023-06-22T07:16:22;24.70;1.00
10692;DHT22;5396;50.950;6.988;2023-06-22T07:18:48;24.90;99.90
10692;DHT22;5396;50.950;6.988;2023-06-22T07:21:13;24.90;1.00
10692;DHT22;5396;50.950;6.988;2023-06-22T07:23:39;25.00;99.90
10692;DHT22;5396;50.950;6.988;2023-06-22T07:26:05;25.00;1.00
10692;DHT22;5396;50.950;6.988;2023-06-22T07:28:31;25.00;1.00
10692;DHT22;5396;50.950;6.988;2023-06-22T07:31:02;25.00;1.00
10692;DHT22;5396;50.950;6.988;2023-06-22T07:33:28;25.10;1.00
10692;DHT22;5396;50.950;6.988;2023-06-22T07:35:54;25.20;99.90
10692;DHT22;5396;50.950;6.988;2023-06-22T07:38:21;25.20;99.90
10692;DHT22;5396;50.950;6.988;2023-06-22T07:40:47;25.20;1.00
10692;DHT22;5396;50.950;6.988;2023-06-22T07:43:13;25.20;1.00
10692;DHT22;5396;50.950;6.988;2023-06-22T07:45:38;25.20;1.00
10692;DHT22;5396;50.950;6.988;2023-06-22T07:48:06;25.20;5.80
10692;DHT22;5396;50.950;6.988;2023-06-22T07:50:32;25.30;15.00
10692;DHT22;5396;50.950;6.988;2023-06-22T07:52:57;25.30;1.00
10692;DHT22;5396;50.950;6.988;2023-06-22T07:55:23;25.30;1.00
10692;DHT22;5396;50.950;6.988;2023-06-22T07:57:49;25.30;1.00
10692;DHT22;5396;50.950;6.988;2023-06-22T08:00:17;25.40;1.00
10692;DHT22;5396;50.950;6.988;2023-06-22T08:02:45;25.50;1.00
10692;DHT22;5396;50.950;6.988;2023-06-22T08:05:13;25.50;1.00
10692;DHT22;5396;50.950;6.988;2023-06-22T08:07:39;25.50;1.00
10692;DHT22;5396;50.950;6.988;2023-06-22T08:10:06;25.40;99.90
10692;DHT22;5396;50.950;6.988;2023-06-22T08:12:31;25.50;99.90
10692;DHT22;5396;50.950;6.988;2023-06-22T08:14:57;25.50;96.20
10692;DHT22;5396;50.950;6.988;2023-06-22T08:17:26;25.60;1.00
10692;DHT22;5396;50.950;6.988;2023-06-22T08:19:51;25.60;1.00
10692;DHT22;5396;50.950;6.988;2023-06-22T08:22:17;25.70;1.00
10692;DHT22;5396;50.950;6.988;2023-06-22T08:24:44;25.80;55.10
10692;DHT22;5396;50.950;6.988;2023-06-22T08:27:10;25.90;1.00
10692;DHT22;5396;50.950;6.988;2023-06-22T08:29:40;26.00;1.00
10692;DHT22;5396;50.950;6.988;2023-06-22T08:32:11;26.20;1.00
10692;DHT22;5396;50.950;6.988;2023-06-22T08:34:37;26.30;99.90
10692;DHT22;5396;50.950;6.988;2023-06-22T08:37:08;26.40;99.90
10692;DHT22;5396;50.950;6.988;2023-06-22T08:39:33;26.40;99.90
10692;DHT22;5396;50.950;6.988;2023-06-22T08:41:59;26.50;53.60
10692;DHT22;5396;50.950;6.988;2023-06-22T08:44:25;26.50;23.30
10692;DHT22;5396;50.950;6.988;2023-06-22T08:46:51;26.40;13.50
10692;DHT22;5396;50.950;6.988;2023-06-22T08:49:16;26.40;13.70
10692;DHT22;5396;50.950;6.988;2023-06-22T08:51:42;26.50;99.90
10692;DHT22;5396;50.950;6.988;2023-06-22T08:54:09;26.60;99.90
10692;DHT22;5396;50.950;6.988;2023-06-22T08:56:35;26.80;99.90
10692;DHT22;5396;50.950;6.988;2023-06-22T08:59:01;26.90;29.60
10692;DHT22;5396;50.950;6.988;2023-06-22T09:01:27;27.00;13.50
10692;DHT22;5396;50.950;6.988;2023-06-22T09:03:52;26.90;1.00
10692;DHT22;5396;50.950;6.988;2023-06-22T09:06:23;26.90;1.00
10692;DHT22;5396;50.950;6.988;2023-06-22T09:08:48;26.80;1.00
10692;DHT22;5396;50.950;6.988;2023-06-22T09:11:14;26.80;8.00
10692;DHT22;5396;50.950;6.988;2023-06-22T09:13:41;26.70;63.60
10692;DHT22;5396;50.950;6.988;2023-06-22T09:16:07;26.80;6.60
10692;DHT22;5396;50.950;6.988;2023-06-22T09:18:34;26.80;1.00
10692;DHT22;5396;50.950;6.988;2023-06-22T09:21:00;26.90;83.90
10692;DHT22;5396;50.950;6.988;2023-06-22T09:23:26;26.90;1.00
10692;DHT22;5396;50.950;6.988;2023-06-22T09:25:52;27.00;5.90
10692;DHT22;5396;50.950;6.988;2023-06-22T09:28:17;27.10;1.00
10692;DHT22;5396;50.950;6.988;2023-06-22T09:30:43;27.10;1.00
10692;DHT22;5396;50.950;6.988;2023-06-22T09:33:10;27.20;22.00
10692;DHT22;5396;50.950;6.988;2023-06-22T09:35:35;27.30;99.90
10692;DHT22;5396;50.950;6.988;2023-06-22T09:38:01;27.40;99.90
10692;DHT22;5396;50.950;6.988;2023-06-22T09:40:26;27.40;99.90
10692;DHT22;5396;50.950;6.988;2023-06-22T09:42:52;27.50;1.00
10692;DHT22;5396;50.950;6.988;2023-06-22T09:45:17;27.60;1.00
10692;DHT22;5396;50.950;6.988;2023-06-22T09:47:43;27.80;1.00
10692;DHT22;5396;50.950;6.988;2023-06-22T09:50:09;27.90;26.10
10692;DHT22;5396;50.950;6.988;2023-06-22T09:52:35;28.10;31.90
10692;DHT22;5396;50.950;6.988;2023-06-22T09:55:00;28.40;43.30
10692;DHT22;5396;50.950;6.988;2023-06-22T09:57:26;28.70;29.30
10692;DHT22;5396;50.950;6.988;2023-06-22T09:59:51;28.80;91.50
10692;DHT22;5396;50.950;6.988;2023-06-22T10:02:17;28.80;99.90
10692;DHT22;5396;50.950;6.988;2023-06-22T10:04:42;28.70;99.90
10692;DHT22;5396;50.950;6.988;2023-06-22T10:07:08;28.60;99.90
10692;DHT22;5396;50.950;6.988;2023-06-22T10:09:34;28.30;99.90
10692;DHT22;5396;50.950;6.988;2023-06-22T10:11:59;28.00;99.90
10692;DHT22;5396;50.950;6.988;2023-06-22T10:14:26;27.70;96.80
10692;DHT22;5396;50.950;6.988;2023-06-22T10:16:54;27.40;8.20
10692;DHT22;5396;50.950;6.988;2023-06-22T10:19:20;27.20;1.00
10692;DHT22;5396;50.950;6.988;2023-06-22T10:21:46;27.00;1.00
10692;DHT22;5396;50.950;6.988;2023-06-22T10:24:11;26.90;1.00
10692;DHT22;5396;50.950;6.988;2023-06-22T10:26:37;26.70;1.00
10692;DHT22;5396;50.950;6.988;2023-06-22T10:29:03;26.60;1.70
10692;DHT22;5396;50.950;6.988;2023-06-22T10:31:28;26.40;1.00
10692;DHT22;5396;50.950;6.988;2023-06-22T10:33:55;26.10;1.00
10692;DHT22;5396;50.950;6.988;2023-06-22T10:36:21;25.80;1.00
10692;DHT22;5396;50.950;6.988;2023-06-22T10:38:47;25.40;1.00
10692;DHT22;5396;50.950;6.988;2023-06-22T10:41:13;24.80;99.90
10692;DHT22;5396;50.950;6.988;2023-06-22T10:43:39;24.30;69.30
10692;DHT22;5396;50.950;6.988;2023-06-22T10:46:06;24.00;1.00
10692;DHT22;5396;50.950;6.988;2023-06-22T10:48:32;23.60;1.00
10692;DHT22;5396;50.950;6.988;2023-06-22T10:50:58;23.30;1.00
10692;DHT22;5396;50.950;6.988;2023-06-22T10:53:23;23.10;1.00
10692;DHT22;5396;50.950;6.988;2023-06-22T10:55:49;22.80;1.00
10692;DHT22;5396;50.950;6.988;2023-06-22T10:58:15;22.60;16.10
10692;DHT22;5396;50.950;6.988;2023-06-22T11:00:40;22.40;60.00
10692;DHT22;5396;50.950;6.988;2023-06-22T11:03:06;22.30;99.90
10692;DHT22;5396;50.950;6.988;2023-06-22T11:05:31;22.30;99.90
10692;DHT22;5396;50.950;6.988;2023-06-22T11:07:58;22.20;99.90
10692;DHT22;5396;50.950;6.988;2023-06-22T11:10:24;22.10;99.90
10692;DHT22;5396;50.950;6.988;2023-06-22T11:12:50;22.10;99.90
10692;DHT22;5396;50.950;6.988;2023-06-22T11:15:15;22.10;99.90
10692;DHT22;5396;50.950;6.988;2023-06-22T11:17:41;22.00;99.90
10692;DHT22;5396;50.950;6.988;2023-06-22T11:20:07;21.90;99.90
10692;DHT22;5396;50.950;6.988;2023-06-22T11:22:39;22.00;99.90
10692;DHT22;5396;50.950;6.988;2023-06-22T11:25:05;22.10;99.90
10692;DHT22;5396;50.950;6.988;2023-06-22T11:27:31;22.10;99.90
10692;DHT22;5396;50.950;6.988;2023-06-22T11:29:57;22.20;99.90
10692;DHT22;5396;50.950;6.988;2023-06-22T11:32:23;22.30;99.90
10692;DHT22;5396;50.950;6.988;2023-06-22T11:34:48;22.40;99.90
10692;DHT22;5396;50.950;6.988;2023-06-22T11:37:14;22.50;99.90
10692;DHT22;5396;50.950;6.988;2023-06-22T11:39:41;22.50;99.90
10692;DHT22;5396;50.950;6.988;2023-06-22T11:42:07;22.60;99.90
10692;DHT22;5396;50.950;6.988;2023-06-22T11:44:33;22.60;99.90
10692;DHT22;5396;50.950;6.988;2023-06-22T11:46:59;22.60;99.90
10692;DHT22;5396;50.950;6.988;2023-06-22T11:49:26;22.60;99.90
10692;DHT22;5396;50.950;6.988;2023-06-22T11:51:52;22.60;99.90
10692;DHT22;5396;50.950;6.988;2023-06-22T11:54:17;22.50;99.90
10692;DHT22;5396;50.950;6.988;2023-06-22T11:56:43;22.60;99.90
10692;DHT22;5396;50.950;6.988;2023-06-22T11:59:09;22.80;99.90
10692;DHT22;5396;50.950;6.988;2023-06-22T12:01:34;23.00;99.90
10692;DHT22;5396;50.950;6.988;2023-06-22T12:04:00;23.20;99.90
10692;DHT22;5396;50.950;6.988;2023-06-22T12:06:25;23.40;99.90
10692;DHT22;5396;50.950;6.988;2023-06-22T12:08:51;23.50;99.90
10692;DHT22;5396;50.950;6.988;2023-06-22T12:11:16;23.80;99.90
10692;DHT22;5396;50.950;6.988;2023-06-22T12:13:42;24.00;99.90
10692;DHT22;5396;50.950;6.988;2023-06-22T12:16:08;24.30;99.90
10692;DHT22;5396;50.950;6.988;2023-06-22T12:18:34;24.50;99.90
10692;DHT22;5396;50.950;6.988;2023-06-22T12:20:59;24.50;99.90
10692;DHT22;5396;50.950;6.988;2023-06-22T12:23:25;24.30;99.90
10692;DHT22;5396;50.950;6.988;2023-06-22T12:25:50;24.20;99.90
10692;DHT22;5396;50.950;6.988;2023-06-22T12:28:16;24.10;99.90
10692;DHT22;5396;50.950;6.988;2023-06-22T12:30:42;24.00;99.90
10692;DHT22;5396;50.950;6.988;2023-06-22T12:33:08;24.00;99.90
10692;DHT22;5396;50.950;6.988;2023-06-22T12:35:35;24.10;99.90
10692;DHT22;5396;50.950;6.988;2023-06-22T12:38:00;24.40;99.90
10692;DHT22;5396;50.950;6.988;2023-06-22T12:40:26;25.20;99.90
10692;DHT22;5396;50.950;6.988;2023-06-22T12:42:51;26.10;99.90
10692;DHT22;5396;50.950;6.988;2023-06-22T12:45:17;26.70;99.90
10692;DHT22;5396;50.950;6.988;2023-06-22T12:47:44;27.00;99.90
10692;DHT22;5396;50.950;6.988;2023-06-22T12:50:09;27.50;99.90
10692;DHT22;5396;50.950;6.988;2023-06-22T12:52:37;28.10;99.90
10692;DHT22;5396;50.950;6.988;2023-06-22T12:55:05;28.50;99.90
10692;DHT22;5396;50.950;6.988;2023-06-22T12:57:31;28.90;99.90
10692;DHT22;5396;50.950;6.988;2023-06-22T12:59:56;29.40;99.90
10692;DHT22;5396;50.950;6.988;2023-06-22T13:02:23;29.40;99.90
10692;DHT22;5396;50.950;6.988;2023-06-22T13:04:49;29.80;99.90
10692;DHT22;5396;50.950;6.988;2023-06-22T13:07:15;30.70;99.90
10692;DHT22;5396;50.950;6.988;2023-06-22T13:09:40;31.10;99.90
10692;DHT22;5396;50.950;6.988;2023-06-22T13:12:06;31.00;99.90
10692;DHT22;5396;50.950;6.988;2023-06-22T13:14:33;30.50;99.90
10692;DHT22;5396;50.950;6.988;2023-06-22T13:16:59;29.80;99.90
10692;DHT22;5396;50.950;6.988;2023-06-22T13:19:24;30.10;99.90
10692;DHT22;5396;50.950;6.988;2023-06-22T13:21:51;30.50;99.90
10692;DHT22;5396;50.950;6.988;2023-06-22T13:24:16;30.90;99.90
10692;DHT22;5396;50.950;6.988;2023-06-22T13:26:42;30.70;99.90
10692;DHT22;5396;50.950;6.988;2023-06-22T13:29:08;30.10;99.90
10692;DHT22;5396;50.950;6.988;2023-06-22T13:31:33;30.10;99.90
10692;DHT22;5396;50.950;6.988;2023-06-22T13:33:59;29.90;99.90
10692;DHT22;5396;50.950;6.988;2023-06-22T13:36:24;29.80;99.90
10692;DHT22;5396;50.950;6.988;2023-06-22T13:38:50;30.40;99.90
10692;DHT22;5396;50.950;6.988;2023-06-22T13:41:16;31.10;99.90
10692;DHT22;5396;50.950;6.988;2023-06-22T13:43:41;31.40;99.90
10692;DHT22;5396;50.950;6.988;2023-06-22T13:46:07;31.10;99.90
10692;DHT22;5396;50.950;6.988;2023-06-22T13:48:32;30.70;99.90
10692;DHT22;5396;50.950;6.988;2023-06-22T13:50:58;30.90;99.90
10692;DHT22;5396;50.950;6.988;2023-06-22T13:53:24;31.30;99.90
10692;DHT22;5396;50.950;6.988;2023-06-22T13:55:51;31.10;99.90
10692;DHT22;5396;50.950;6.988;2023-06-22T13:58:16;30.90;99.90
10692;DHT22;5396;50.950;6.988;2023-06-22T14:00:42;30.70;99.90
10692;DHT22;5396;50.950;6.988;2023-06-22T14:03:07;30.10;99.90
10692;DHT22;5396;50.950;6.988;2023-06-22T14:05:33;29.60;99.90
10692;DHT22;5396;50.950;6.988;2023-06-22T14:07:58;29.50;99.90
10692;DHT22;5396;50.950;6.988;2023-06-22T14:10:24;29.80;99.90
10692;DHT22;5396;50.950;6.988;2023-06-22T14:12:50;30.70;99.90
10692;DHT22;5396;50.950;6.988;2023-06-22T14:15:15;31.90;99.90
10692;DHT22;5396;50.950;6.988;2023-06-22T14:17:41;32.20;99.90
10692;DHT22;5396;50.950;6.988;2023-06-22T14:20:07;31.50;99.90
10692;DHT22;5396;50.950;6.988;2023-06-22T14:22:33;30.40;99.90
10692;DHT22;5396;50.950;6.988;2023-06-22T14:25:00;29.10;99.90
10692;DHT22;5396;50.950;6.988;2023-06-22T14:27:26;28.20;99.90
10692;DHT22;5396;50.950;6.988;2023-06-22T14:29:52;27.50;99.90
10692;DHT22;5396;50.950;6.988;2023-06-22T14:32:18;27.10;99.90
10692;DHT22;5396;50.950;6.988;2023-06-22T14:34:44;26.90;99.90
10692;DHT22;5396;50.950;6.988;2023-06-22T14:37:10;27.00;99.90
10692;DHT22;5396;50.950;6.988;2023-06-22T14:39:36;27.00;99.90
10692;DHT22;5396;50.950;6.988;2023-06-22T14:42:02;26.80;99.90
10692;DHT22;5396;50.950;6.988;2023-06-22T14:44:29;26.40;99.90
10692;DHT22;5396;50.950;6.988;2023-06-22T14:46:55;26.00;99.90
10692;DHT22;5396;50.950;6.988;2023-06-22T14:49:21;25.50;99.90
10692;DHT22;5396;50.950;6.988;2023-06-22T14:51:47;25.20;99.90
10692;DHT22;5396;50.950;6.988;2023-06-22T14:54:13;24.90;99.90
10692;DHT22;5396;50.950;6.988;2023-06-22T14:56:38;24.60;99.90
10692;DHT22;5396;50.950;6.988;2023-06-22T14:59:04;24.40;99.90
10692;DHT22;5396;50.950;6.988;2023-06-22T15:01:29;24.20;99.90
10692;DHT22;5396;50.950;6.988;2023-06-22T15:03:55;23.80;99.90
10692;DHT22;5396;50.950;6.988;2023-06-22T15:06:21;23.30;99.90
10692;DHT22;5396;50.950;6.988;2023-06-22T15:08:47;23.00;99.90
10692;DHT22;5396;50.950;6.988;2023-06-22T15:11:12;22.70;99.90
10692;DHT22;5396;50.950;6.988;2023-06-22T15:13:42;22.40;99.90
10692;DHT22;5396;50.950;6.988;2023-06-22T15:16:08;22.30;99.90
10692;DHT22;5396;50.950;6.988;2023-06-22T15:18:34;22.20;99.90
10692;DHT22;5396;50.950;6.988;2023-06-22T15:21:01;22.10;99.90
10692;DHT22;5396;50.950;6.988;2023-06-22T15:23:27;22.00;99.90
10692;DHT22;5396;50.950;6.988;2023-06-22T15:25:54;21.90;99.90
10692;DHT22;5396;50.950;6.988;2023-06-22T15:28:20;21.80;99.90
10692;DHT22;5396;50.950;6.988;2023-06-22T15:30:49;21.80;99.90
10692;DHT22;5396;50.950;6.988;2023-06-22T15:33:15;21.60;99.90
10692;DHT22;5396;50.950;6.988;2023-06-22T15:35:41;21.50;99.90
10692;DHT22;5396;50.950;6.988;2023-06-22T15:38:07;21.50;99.90
10692;DHT22;5396;50.950;6.988;2023-06-22T15:40:32;21.50;99.90
10692;DHT22;5396;50.950;6.988;2023-06-22T15:42:58;21.50;99.90
10692;DHT22;5396;50.950;6.988;2023-06-22T15:45:25;21.50;99.90
10692;DHT22;5396;50.950;6.988;2023-06-22T15:47:51;21.50;99.90
10692;DHT22;5396;50.950;6.988;2023-06-22T15:50:16;21.60;99.90
10692;DHT22;5396;50.950;6.988;2023-06-22T15:52:42;21.60;99.90
10692;DHT22;5396;50.950;6.988;2023-06-22T15:55:13;21.60;99.90
10692;DHT22;5396;50.950;6.988;2023-06-22T15:57:39;21.60;99.90
10692;DHT22;5396;50.950;6.988;2023-06-22T16:00:05;21.70;99.90
10692;DHT22;5396;50.950;6.988;2023-06-22T16:02:31;21.70;99.90
10692;DHT22;5396;50.950;6.988;2023-06-22T16:04:56;21.70;99.90
10692;DHT22;5396;50.950;6.988;2023-06-22T16:07:24;21.80;99.90
10692;DHT22;5396;50.950;6.988;2023-06-22T16:09:50;21.70;99.90